EDDM/MUC METAR and TAF weather

Enter ICAO airport designator
Station Type Date Time Source
EDDM METAR 2019/08/25 17:50 UTC NOAA

EDDM 251750Z 06004KT 030V110 9999 -SHRA SCT046CB 22/18 Q1020 TEMPO SHRA


Station Type Date Time Source
EDDM Decoded METAR 2019/08/25 17:50 UTC NOAA

Station name not available
Aug 25, 2019 - 01:50 PM EDT / 2019.08.25 1750 UTC
Wind: from the ENE (060 degrees) at 5 MPH (4 KT) (direction variable):0
Visibility: greater than 7 mile(s):0
Sky conditions: partly cloudy
Weather: light rain showers; Cumulonimbus clouds observed
Temperature: 71 F (22 C)
Dew Point: 64 F (18 C)
Relative Humidity: 78%
Pressure (altimeter): 30.12 in. Hg (1020 hPa)
ob: EDDM 251750Z 06004KT 030V110 9999 -SHRA SCT046CB 22/18 Q1020 TEMPO SHRA
cycle: 18

Station Type Date Time Source
EDDM TAF 2019/08/25 18:27 UTC NOAA

TAF EDDM 251700Z 2518/2624 VRB03KT 9999 FEW040 PROB30
TEMPO 2518/2520 05015G30KT TSRA SCT035CB
BECMG 2601/2603 3500 BCFG PROB30
TEMPO 2603/2606 0600 FG VV002
BECMG 2605/2608 9999 PROB30
TEMPO 2606/2608 BKN007
BECMG 2609/2611 07005KT PROB30
TEMPO 2617/2620 12015KT TSRA SCT030CB
BECMG 2617/2619 VRB03KT

Example: see airport list